Antonios — SY8410 — position and weather

sailwx.info

Track history (hours):
 
Tides and Currents Weather Stations Pressure Air Temp Water Temp Dewpoint Dewpoint Depression Visibility Wind Speed Wind Dir Waves Ship Positions

Antonios

Last reported at 2016-Sep-25 10:17 UTC. Time now 2016-Oct-01 17:13 UTC.
Position N 36°59' E 025°19'.

Length 57 m; draft 4 m.

Type: Tanker. MMSI: 239191300.

Date/timePositionNaut miles runAvg speedWind from/ knotsBaromVisibWave heightAir tempDewpointWater temp
2016-Sep-25 10:17N 36°59' E 025°19'7 9.8
2016-Sep-25 09:34N 37°06' E 025°19'10 5.0
2016-Sep-25 07:34N 37°12' E 025°09'18 6.1
2016-Sep-25 04:34N 37°22' E 024°50'36 8.5
2016-Sep-25 00:18N 37°33' E 024°06'17 9.8
2016-Sep-24 22:33N 37°38' E 023°46'10 9.6
2016-Sep-24 21:34N 37°46' E 023°39'19 9.5
2016-Sep-24 19:33N 37°53' E 023°16'9 8.8
2016-Sep-24 18:33N 37°55' E 023°05'0 0.1
2016-Sep-24 17:33N 37°55' E 023°05'0 0.0
2016-Sep-24 16:33N 37°55' E 023°05'0 0.0
2016-Sep-24 14:32N 37°55' E 023°05'0 0.0
2016-Sep-24 12:31N 37°55' E 023°05'0 0.0
2016-Sep-24 10:33N 37°55' E 023°05'0 0.0
2016-Sep-24 09:32N 37°55' E 023°05'1 0.2
2016-Sep-24 03:32N 37°54' E 023°04'0 0.0
2016-Sep-24 02:33N 37°54' E 023°04'0 0.0
2016-Sep-24 01:33N 37°54' E 023°04'0 0.0
2016-Sep-24 00:33N 37°54' E 023°04'0 0.0
2016-Sep-23 19:33N 37°54' E 023°04'0 0.0
2016-Sep-23 17:33N 37°54' E 023°04'0 0.0
2016-Sep-23 16:33N 37°54' E 023°04'0 0.0
2016-Sep-23 15:33N 37°54' E 023°04'0 0.0
2016-Sep-23 13:33N 37°54' E 023°04'7 1.8
2016-Sep-23 09:32N 37°53' E 023°13'28 9.6
2016-Sep-23 06:33N 37°41' E 023°45'2110.4
2016-Sep-23 04:33N 37°34' E 024°10'29 8.7
2016-Sep-23 01:13N 37°24' E 024°44'7 9.9
2016-Sep-23 00:34N 37°21' E 024°52'1210.1
2016-Sep-22 23:21N 37°18' E 025°06'2810.1
2016-Sep-22 20:34N 37°12' E 025°41'  
2016-Sep-17 13:33N 37°12' E 025°42'9 9.0
2016-Sep-17 12:30N 37°14' E 025°30'19 9.5
2016-Sep-17 10:34N 37°18' E 025°07'10 9.9
2016-Sep-17 09:34N 37°20' E 024°55'44 9.8
2016-Sep-17 05:04N 37°34' E 024°02'510.0
2016-Sep-17 04:32N 37°35' E 023°56'37 9.3
2016-Sep-17 00:33N 37°53' E 023°15'8 1.1
2016-Sep-16 17:33N 37°55' E 023°05'0 0.0
2016-Sep-16 15:33N 37°55' E 023°05'1 0.3
2016-Sep-16 12:33N 37°55' E 023°04'0 0.0
2016-Sep-16 09:33N 37°55' E 023°04'0 0.0
2016-Sep-16 07:33N 37°55' E 023°04'16 4.0
2016-Sep-16 03:34N 37°42' E 023°17'10 9.4
2016-Sep-16 02:33N 37°37' E 023°27'19 9.6
2016-Sep-16 00:33N 37°26' E 023°47'19 9.4
2016-Sep-15 22:32N 37°14' E 024°05'9 9.3
2016-Sep-15 21:34N 37°08' E 024°14'  
Track history (hours):
 
Tides and Currents Weather Stations Pressure Air Temp Water Temp Dewpoint Dewpoint Depression Visibility Wind Speed Wind Dir Waves Ship Positions

Antonios

Last reported at 2016-Sep-25 10:17 UTC. Time now 2016-Oct-01 17:13 UTC.
Position N 36°59' E 025°19'.

Length 57 m; draft 4 m.

Type: Tanker. MMSI: 239191300.

Date/timePositionNaut miles runAvg speedWind from/ knotsBaromVisibWave heightAir tempDewpointWater temp
2016-Sep-25 10:17N 36°59' E 025°19'7 9.8
2016-Sep-25 09:34N 37°06' E 025°19'10 5.0
2016-Sep-25 07:34N 37°12' E 025°09'18 6.1
2016-Sep-25 04:34N 37°22' E 024°50'36 8.5
2016-Sep-25 00:18N 37°33' E 024°06'17 9.8
2016-Sep-24 22:33N 37°38' E 023°46'10 9.6
2016-Sep-24 21:34N 37°46' E 023°39'19 9.5
2016-Sep-24 19:33N 37°53' E 023°16'9 8.8
2016-Sep-24 18:33N 37°55' E 023°05'0 0.1
2016-Sep-24 17:33N 37°55' E 023°05'0 0.0
2016-Sep-24 16:33N 37°55' E 023°05'0 0.0
2016-Sep-24 14:32N 37°55' E 023°05'0 0.0
2016-Sep-24 12:31N 37°55' E 023°05'0 0.0
2016-Sep-24 10:33N 37°55' E 023°05'0 0.0
2016-Sep-24 09:32N 37°55' E 023°05'1 0.2
2016-Sep-24 03:32N 37°54' E 023°04'0 0.0
2016-Sep-24 02:33N 37°54' E 023°04'0 0.0
2016-Sep-24 01:33N 37°54' E 023°04'0 0.0
2016-Sep-24 00:33N 37°54' E 023°04'0 0.0
2016-Sep-23 19:33N 37°54' E 023°04'0 0.0
2016-Sep-23 17:33N 37°54' E 023°04'0 0.0
2016-Sep-23 16:33N 37°54' E 023°04'0 0.0
2016-Sep-23 15:33N 37°54' E 023°04'0 0.0
2016-Sep-23 13:33N 37°54' E 023°04'7 1.8
2016-Sep-23 09:32N 37°53' E 023°13'28 9.6
2016-Sep-23 06:33N 37°41' E 023°45'2110.4
2016-Sep-23 04:33N 37°34' E 024°10'29 8.7
2016-Sep-23 01:13N 37°24' E 024°44'7 9.9
2016-Sep-23 00:34N 37°21' E 024°52'1210.1
2016-Sep-22 23:21N 37°18' E 025°06'2810.1
2016-Sep-22 20:34N 37°12' E 025°41'  
2016-Sep-17 13:33N 37°12' E 025°42'9 9.0
2016-Sep-17 12:30N 37°14' E 025°30'19 9.5
2016-Sep-17 10:34N 37°18' E 025°07'10 9.9
2016-Sep-17 09:34N 37°20' E 024°55'44 9.8
2016-Sep-17 05:04N 37°34' E 024°02'510.0
2016-Sep-17 04:32N 37°35' E 023°56'37 9.3
2016-Sep-17 00:33N 37°53' E 023°15'8 1.1
2016-Sep-16 17:33N 37°55' E 023°05'0 0.0
2016-Sep-16 15:33N 37°55' E 023°05'1 0.3
2016-Sep-16 12:33N 37°55' E 023°04'0 0.0
2016-Sep-16 09:33N 37°55' E 023°04'0 0.0
2016-Sep-16 07:33N 37°55' E 023°04'16 4.0
2016-Sep-16 03:34N 37°42' E 023°17'10 9.4
2016-Sep-16 02:33N 37°37' E 023°27'19 9.6
2016-Sep-16 00:33N 37°26' E 023°47'19 9.4
2016-Sep-15 22:32N 37°14' E 024°05'9 9.3
2016-Sep-15 21:34N 37°08' E 024°14'  

Dump ship's entire track history